sensor_id;sensor_type;location;lat;lon;timestamp;temperature;humidity
48912;DHT22;34722;52.108;5.044;2022-08-21T00:01:26;15.30;99.90
48912;DHT22;34722;52.108;5.044;2022-08-21T00:03:55;15.20;99.90
48912;DHT22;34722;52.108;5.044;2022-08-21T00:06:22;15.30;99.90
48912;DHT22;34722;52.108;5.044;2022-08-21T00:08:50;15.30;99.90
48912;DHT22;34722;52.108;5.044;2022-08-21T00:11:15;15.30;99.90
48912;DHT22;34722;52.108;5.044;2022-08-21T00:13:41;15.30;99.90
48912;DHT22;34722;52.108;5.044;2022-08-21T00:16:07;15.30;99.90
48912;DHT22;34722;52.108;5.044;2022-08-21T00:18:33;15.20;99.90
48912;DHT22;34722;52.108;5.044;2022-08-21T00:20:59;15.20;99.90
48912;DHT22;34722;52.108;5.044;2022-08-21T00:23:24;15.20;99.90
48912;DHT22;34722;52.108;5.044;2022-08-21T00:25:50;15.20;99.90
48912;DHT22;34722;52.108;5.044;2022-08-21T00:28:17;15.30;99.90
48912;DHT22;34722;52.108;5.044;2022-08-21T00:30:45;15.20;99.90
48912;DHT22;34722;52.108;5.044;2022-08-21T00:33:12;15.20;99.90
48912;DHT22;34722;52.108;5.044;2022-08-21T00:35:40;15.10;99.90
48912;DHT22;34722;52.108;5.044;2022-08-21T00:38:07;15.10;99.90
48912;DHT22;34722;52.108;5.044;2022-08-21T00:41:01;15.10;99.90
48912;DHT22;34722;52.108;5.044;2022-08-21T00:43:29;15.10;99.90
48912;DHT22;34722;52.108;5.044;2022-08-21T00:45:56;15.10;99.90
48912;DHT22;34722;52.108;5.044;2022-08-21T00:48:22;15.10;99.90
48912;DHT22;34722;52.108;5.044;2022-08-21T00:50:58;15.10;99.90
48912;DHT22;34722;52.108;5.044;2022-08-21T00:53:30;15.10;99.90
48912;DHT22;34722;52.108;5.044;2022-08-21T00:55:59;15.00;99.90
48912;DHT22;34722;52.108;5.044;2022-08-21T00:58:26;15.00;99.90
48912;DHT22;34722;52.108;5.044;2022-08-21T01:00:52;15.00;99.90
48912;DHT22;34722;52.108;5.044;2022-08-21T01:03:22;15.10;99.90
48912;DHT22;34722;52.108;5.044;2022-08-21T01:05:48;15.10;99.90
48912;DHT22;34722;52.108;5.044;2022-08-21T01:08:16;15.20;99.90
48912;DHT22;34722;52.108;5.044;2022-08-21T01:10:44;15.20;99.90
48912;DHT22;34722;52.108;5.044;2022-08-21T01:13:11;15.20;99.90
48912;DHT22;34722;52.108;5.044;2022-08-21T01:15:40;15.30;99.90
48912;DHT22;34722;52.108;5.044;2022-08-21T01:18:09;15.30;99.90
48912;DHT22;34722;52.108;5.044;2022-08-21T01:20:37;15.20;99.90
48912;DHT22;34722;52.108;5.044;2022-08-21T01:23:05;15.20;99.90
48912;DHT22;34722;52.108;5.044;2022-08-21T01:25:31;15.10;99.90
48912;DHT22;34722;52.108;5.044;2022-08-21T01:27:59;15.20;99.90
48912;DHT22;34722;52.108;5.044;2022-08-21T01:30:27;15.20;99.90
48912;DHT22;34722;52.108;5.044;2022-08-21T01:32:54;15.10;99.90
48912;DHT22;34722;52.108;5.044;2022-08-21T01:35:22;15.10;99.90
48912;DHT22;34722;52.108;5.044;2022-08-21T01:37:48;15.00;99.90
48912;DHT22;34722;52.108;5.044;2022-08-21T01:40:15;15.10;99.90
48912;DHT22;34722;52.108;5.044;2022-08-21T01:42:42;15.00;99.90
48912;DHT22;34722;52.108;5.044;2022-08-21T01:45:11;15.10;99.90
48912;DHT22;34722;52.108;5.044;2022-08-21T01:47:38;15.00;99.90
48912;DHT22;34722;52.108;5.044;2022-08-21T01:50:09;15.00;99.90
48912;DHT22;34722;52.108;5.044;2022-08-21T01:52:36;14.90;99.90
48912;DHT22;34722;52.108;5.044;2022-08-21T01:55:02;14.90;99.90
48912;DHT22;34722;52.108;5.044;2022-08-21T01:57:28;14.90;99.90
48912;DHT22;34722;52.108;5.044;2022-08-21T01:59:54;14.80;99.90
48912;DHT22;34722;52.108;5.044;2022-08-21T02:02:20;14.80;99.90
48912;DHT22;34722;52.108;5.044;2022-08-21T02:04:45;14.80;99.90
48912;DHT22;34722;52.108;5.044;2022-08-21T02:07:11;14.80;99.90
48912;DHT22;34722;52.108;5.044;2022-08-21T02:09:36;14.80;99.90
48912;DHT22;34722;52.108;5.044;2022-08-21T02:12:05;14.80;99.90
48912;DHT22;34722;52.108;5.044;2022-08-21T02:14:31;14.80;99.90
48912;DHT22;34722;52.108;5.044;2022-08-21T02:16:56;14.80;99.90
48912;DHT22;34722;52.108;5.044;2022-08-21T02:19:22;14.80;99.90
48912;DHT22;34722;52.108;5.044;2022-08-21T02:21:47;14.90;99.90
48912;DHT22;34722;52.108;5.044;2022-08-21T02:24:13;14.90;99.90
48912;DHT22;34722;52.108;5.044;2022-08-21T02:26:39;14.80;99.90
48912;DHT22;34722;52.108;5.044;2022-08-21T02:29:05;14.80;99.90
48912;DHT22;34722;52.108;5.044;2022-08-21T02:31:31;14.90;99.90
48912;DHT22;34722;52.108;5.044;2022-08-21T02:33:56;14.90;99.90
48912;DHT22;34722;52.108;5.044;2022-08-21T02:36:22;14.90;99.90
48912;DHT22;34722;52.108;5.044;2022-08-21T02:38:48;14.90;99.90
48912;DHT22;34722;52.108;5.044;2022-08-21T02:41:18;14.90;99.90
48912;DHT22;34722;52.108;5.044;2022-08-21T02:43:44;14.80;99.90
48912;DHT22;34722;52.108;5.044;2022-08-21T02:46:12;14.70;99.90
48912;DHT22;34722;52.108;5.044;2022-08-21T02:48:39;14.70;99.90
48912;DHT22;34722;52.108;5.044;2022-08-21T02:51:08;14.70;99.90
48912;DHT22;34722;52.108;5.044;2022-08-21T02:53:34;14.70;99.90
48912;DHT22;34722;52.108;5.044;2022-08-21T02:56:04;14.60;99.90
48912;DHT22;34722;52.108;5.044;2022-08-21T02:58:33;14.60;99.90
48912;DHT22;34722;52.108;5.044;2022-08-21T03:01:00;14.70;99.90
48912;DHT22;34722;52.108;5.044;2022-08-21T03:03:27;14.60;99.90
48912;DHT22;34722;52.108;5.044;2022-08-21T03:05:54;14.60;99.90
48912;DHT22;34722;52.108;5.044;2022-08-21T03:08:22;14.60;99.90
48912;DHT22;34722;52.108;5.044;2022-08-21T03:10:50;14.60;99.90
48912;DHT22;34722;52.108;5.044;2022-08-21T03:13:18;14.60;99.90
48912;DHT22;34722;52.108;5.044;2022-08-21T03:15:46;14.50;99.90
48912;DHT22;34722;52.108;5.044;2022-08-21T03:18:12;14.40;99.90
48912;DHT22;34722;52.108;5.044;2022-08-21T03:20:39;14.40;99.90
48912;DHT22;34722;52.108;5.044;2022-08-21T03:23:05;14.40;99.90
48912;DHT22;34722;52.108;5.044;2022-08-21T03:25:32;14.40;99.90
48912;DHT22;34722;52.108;5.044;2022-08-21T03:27:59;14.40;99.90
48912;DHT22;34722;52.108;5.044;2022-08-21T03:30:25;14.50;99.90
48912;DHT22;34722;52.108;5.044;2022-08-21T03:32:50;14.40;99.90
48912;DHT22;34722;52.108;5.044;2022-08-21T03:35:17;14.40;99.90
48912;DHT22;34722;52.108;5.044;2022-08-21T03:37:44;14.40;99.90
48912;DHT22;34722;52.108;5.044;2022-08-21T03:40:11;14.40;99.90
48912;DHT22;34722;52.108;5.044;2022-08-21T03:42:37;14.40;99.90
48912;DHT22;34722;52.108;5.044;2022-08-21T03:45:04;14.40;99.90
48912;DHT22;34722;52.108;5.044;2022-08-21T03:47:30;14.40;99.90
48912;DHT22;34722;52.108;5.044;2022-08-21T03:49:56;14.30;99.90
48912;DHT22;34722;52.108;5.044;2022-08-21T03:52:21;14.30;99.90
48912;DHT22;34722;52.108;5.044;2022-08-21T03:54:47;14.40;99.90
48912;DHT22;34722;52.108;5.044;2022-08-21T03:57:13;14.30;99.90
48912;DHT22;34722;52.108;5.044;2022-08-21T03:59:39;14.40;99.90
48912;DHT22;34722;52.108;5.044;2022-08-21T04:02:06;14.30;99.90
48912;DHT22;34722;52.108;5.044;2022-08-21T04:04:33;14.30;99.90
48912;DHT22;34722;52.108;5.044;2022-08-21T04:06:59;14.40;99.90
48912;DHT22;34722;52.108;5.044;2022-08-21T04:09:25;14.40;99.90
48912;DHT22;34722;52.108;5.044;2022-08-21T04:11:51;14.40;99.90
48912;DHT22;34722;52.108;5.044;2022-08-21T04:14:17;14.40;99.90
48912;DHT22;34722;52.108;5.044;2022-08-21T04:16:43;14.40;99.90
48912;DHT22;34722;52.108;5.044;2022-08-21T04:19:10;14.40;99.90
48912;DHT22;34722;52.108;5.044;2022-08-21T04:21:37;14.40;99.90
48912;DHT22;34722;52.108;5.044;2022-08-21T04:24:04;14.40;99.90
48912;DHT22;34722;52.108;5.044;2022-08-21T04:26:29;14.40;99.90
48912;DHT22;34722;52.108;5.044;2022-08-21T04:28:57;14.30;99.90
48912;DHT22;34722;52.108;5.044;2022-08-21T04:31:23;14.40;99.90
48912;DHT22;34722;52.108;5.044;2022-08-21T04:33:52;14.30;99.90
48912;DHT22;34722;52.108;5.044;2022-08-21T04:36:18;14.40;99.90
48912;DHT22;34722;52.108;5.044;2022-08-21T04:38:43;14.40;99.90
48912;DHT22;34722;52.108;5.044;2022-08-21T04:41:09;14.40;99.90
48912;DHT22;34722;52.108;5.044;2022-08-21T04:43:35;14.40;99.90
48912;DHT22;34722;52.108;5.044;2022-08-21T04:46:01;14.40;99.90
48912;DHT22;34722;52.108;5.044;2022-08-21T04:48:27;14.40;99.90
48912;DHT22;34722;52.108;5.044;2022-08-21T04:51:11;14.30;99.90
48912;DHT22;34722;52.108;5.044;2022-08-21T04:53:52;14.40;99.90
48912;DHT22;34722;52.108;5.044;2022-08-21T04:56:26;14.40;99.90
48912;DHT22;34722;52.108;5.044;2022-08-21T04:58:54;14.40;99.90
48912;DHT22;34722;52.108;5.044;2022-08-21T05:01:25;14.50;99.90
48912;DHT22;34722;52.108;5.044;2022-08-21T05:03:55;14.50;99.90
48912;DHT22;34722;52.108;5.044;2022-08-21T05:06:22;14.50;99.90
48912;DHT22;34722;52.108;5.044;2022-08-21T05:08:51;14.50;99.90
48912;DHT22;34722;52.108;5.044;2022-08-21T05:11:18;14.50;99.90
48912;DHT22;34722;52.108;5.044;2022-08-21T05:13:45;14.60;99.90
48912;DHT22;34722;52.108;5.044;2022-08-21T05:16:12;14.70;99.90
48912;DHT22;34722;52.108;5.044;2022-08-21T05:18:38;14.90;99.90
48912;DHT22;34722;52.108;5.044;2022-08-21T05:21:04;15.40;99.90
48912;DHT22;34722;52.108;5.044;2022-08-21T05:23:30;16.00;99.90
48912;DHT22;34722;52.108;5.044;2022-08-21T05:26:20;16.50;99.90
48912;DHT22;34722;52.108;5.044;2022-08-21T05:28:59;16.90;99.90
48912;DHT22;34722;52.108;5.044;2022-08-21T05:31:25;16.90;99.90
48912;DHT22;34722;52.108;5.044;2022-08-21T05:33:50;16.70;99.90
48912;DHT22;34722;52.108;5.044;2022-08-21T05:36:18;16.40;99.90
48912;DHT22;34722;52.108;5.044;2022-08-21T05:41:54;16.10;99.90
48912;DHT22;34722;52.108;5.044;2022-08-21T05:44:20;16.00;99.90
48912;DHT22;34722;52.108;5.044;2022-08-21T05:46:46;15.90;99.90
48912;DHT22;34722;52.108;5.044;2022-08-21T05:49:38;15.90;99.90
48912;DHT22;34722;52.108;5.044;2022-08-21T05:52:04;15.90;99.90
48912;DHT22;34722;52.108;5.044;2022-08-21T05:54:32;15.80;99.90
48912;DHT22;34722;52.108;5.044;2022-08-21T05:56:58;15.80;99.90
48912;DHT22;34722;52.108;5.044;2022-08-21T05:59:24;15.90;99.90
48912;DHT22;34722;52.108;5.044;2022-08-21T06:01:50;16.00;99.90
48912;DHT22;34722;52.108;5.044;2022-08-21T06:04:20;16.00;99.90
48912;DHT22;34722;52.108;5.044;2022-08-21T06:06:49;16.00;99.90
48912;DHT22;34722;52.108;5.044;2022-08-21T06:09:15;16.10;99.90
48912;DHT22;34722;52.108;5.044;2022-08-21T06:11:43;16.30;99.90
48912;DHT22;34722;52.108;5.044;2022-08-21T06:14:17;16.50;99.90
48912;DHT22;34722;52.108;5.044;2022-08-21T06:16:50;16.60;99.90
48912;DHT22;34722;52.108;5.044;2022-08-21T06:19:19;16.80;99.90
48912;DHT22;34722;52.108;5.044;2022-08-21T06:21:49;17.10;99.90
48912;DHT22;34722;52.108;5.044;2022-08-21T06:24:19;17.30;99.90
48912;DHT22;34722;52.108;5.044;2022-08-21T06:26:55;17.50;99.60
48912;DHT22;34722;52.108;5.044;2022-08-21T06:29:24;17.80;91.40
48912;DHT22;34722;52.108;5.044;2022-08-21T06:31:51;18.20;71.30
48912;DHT22;34722;52.108;5.044;2022-08-21T06:34:17;18.60;51.20
48912;DHT22;34722;52.108;5.044;2022-08-21T06:36:44;19.30;25.50
48912;DHT22;34722;52.108;5.044;2022-08-21T06:39:10;20.50;1.00
48912;DHT22;34722;52.108;5.044;2022-08-21T06:41:36;21.60;1.00
48912;DHT22;34722;52.108;5.044;2022-08-21T06:44:02;22.70;1.00
48912;DHT22;34722;52.108;5.044;2022-08-21T06:46:31;23.90;99.90
48912;DHT22;34722;52.108;5.044;2022-08-21T06:48:57;24.90;99.90
48912;DHT22;34722;52.108;5.044;2022-08-21T06:51:24;25.90;99.90
48912;DHT22;34722;52.108;5.044;2022-08-21T06:53:51;25.90;99.90
48912;DHT22;34722;52.108;5.044;2022-08-21T06:56:17;25.40;1.00
48912;DHT22;34722;52.108;5.044;2022-08-21T06:58:46;25.90;99.90
48912;DHT22;34722;52.108;5.044;2022-08-21T07:01:12;26.80;16.10
48912;DHT22;34722;52.108;5.044;2022-08-21T07:03:40;27.30;1.00
48912;DHT22;34722;52.108;5.044;2022-08-21T07:06:07;28.20;1.00
48912;DHT22;34722;52.108;5.044;2022-08-21T07:08:35;28.70;99.90
48912;DHT22;34722;52.108;5.044;2022-08-21T07:11:35;29.20;99.90
48912;DHT22;34722;52.108;5.044;2022-08-21T07:14:04;29.50;44.30
48912;DHT22;34722;52.108;5.044;2022-08-21T07:16:30;29.80;12.70
48912;DHT22;34722;52.108;5.044;2022-08-21T07:18:56;30.30;1.00
48912;DHT22;34722;52.108;5.044;2022-08-21T07:21:24;30.60;1.00
48912;DHT22;34722;52.108;5.044;2022-08-21T07:24:06;30.00;1.00
48912;DHT22;34722;52.108;5.044;2022-08-21T07:26:47;29.50;1.00
48912;DHT22;34722;52.108;5.044;2022-08-21T07:29:16;28.60;37.80
48912;DHT22;34722;52.108;5.044;2022-08-21T07:31:47;29.90;1.00
48912;DHT22;34722;52.108;5.044;2022-08-21T07:34:16;30.20;1.00
48912;DHT22;34722;52.108;5.044;2022-08-21T07:36:42;29.30;1.00
48912;DHT22;34722;52.108;5.044;2022-08-21T07:39:08;28.80;64.00
48912;DHT22;34722;52.108;5.044;2022-08-21T07:41:34;29.00;68.90
48912;DHT22;34722;52.108;5.044;2022-08-21T07:44:00;29.70;1.00
48912;DHT22;34722;52.108;5.044;2022-08-21T07:46:27;30.70;1.00
48912;DHT22;34722;52.108;5.044;2022-08-21T07:48:53;31.30;1.00
48912;DHT22;34722;52.108;5.044;2022-08-21T07:51:21;30.80;1.00
48912;DHT22;34722;52.108;5.044;2022-08-21T07:53:55;30.60;1.00
48912;DHT22;34722;52.108;5.044;2022-08-21T07:56:31;29.60;1.00
48912;DHT22;34722;52.108;5.044;2022-08-21T07:59:03;29.80;1.00
48912;DHT22;34722;52.108;5.044;2022-08-21T08:01:29;29.50;1.00
48912;DHT22;34722;52.108;5.044;2022-08-21T08:04:04;27.80;99.90
48912;DHT22;34722;52.108;5.044;2022-08-21T08:06:34;26.20;1.00
48912;DHT22;34722;52.108;5.044;2022-08-21T08:09:00;25.40;99.90
48912;DHT22;34722;52.108;5.044;2022-08-21T08:11:29;25.50;99.90
48912;DHT22;34722;52.108;5.044;2022-08-21T08:13:55;26.40;1.00
48912;DHT22;34722;52.108;5.044;2022-08-21T08:16:22;27.30;1.00
48912;DHT22;34722;52.108;5.044;2022-08-21T08:18:48;28.70;1.00
48912;DHT22;34722;52.108;5.044;2022-08-21T08:21:16;28.20;99.90
48912;DHT22;34722;52.108;5.044;2022-08-21T08:23:52;29.40;99.90
48912;DHT22;34722;52.108;5.044;2022-08-21T08:26:20;30.50;1.00
48912;DHT22;34722;52.108;5.044;2022-08-21T08:28:46;31.50;1.00
48912;DHT22;34722;52.108;5.044;2022-08-21T08:31:13;32.80;1.00
48912;DHT22;34722;52.108;5.044;2022-08-21T08:33:39;32.50;1.00
48912;DHT22;34722;52.108;5.044;2022-08-21T08:36:05;32.40;1.00
48912;DHT22;34722;52.108;5.044;2022-08-21T08:38:31;31.40;1.00
48912;DHT22;34722;52.108;5.044;2022-08-21T08:41:06;30.30;1.00
48912;DHT22;34722;52.108;5.044;2022-08-21T08:43:36;29.50;1.00
48912;DHT22;34722;52.108;5.044;2022-08-21T08:46:06;29.90;1.00
48912;DHT22;34722;52.108;5.044;2022-08-21T08:48:53;30.50;1.00
48912;DHT22;34722;52.108;5.044;2022-08-21T08:51:40;32.40;1.00
48912;DHT22;34722;52.108;5.044;2022-08-21T08:54:13;31.20;1.00
48912;DHT22;34722;52.108;5.044;2022-08-21T08:56:41;31.10;1.00
48912;DHT22;34722;52.108;5.044;2022-08-21T08:59:15;31.70;1.00
48912;DHT22;34722;52.108;5.044;2022-08-21T09:01:42;31.20;1.00
48912;DHT22;34722;52.108;5.044;2022-08-21T09:04:10;29.90;1.00
48912;DHT22;34722;52.108;5.044;2022-08-21T09:06:53;30.50;1.00
48912;DHT22;34722;52.108;5.044;2022-08-21T09:09:34;32.60;1.00
48912;DHT22;34722;52.108;5.044;2022-08-21T09:21:16;32.80;1.00
48912;DHT22;34722;52.108;5.044;2022-08-21T09:23:55;33.90;1.00
48912;DHT22;34722;52.108;5.044;2022-08-21T09:26:25;32.50;1.00
48912;DHT22;34722;52.108;5.044;2022-08-21T09:28:55;30.80;1.00
48912;DHT22;34722;52.108;5.044;2022-08-21T09:31:28;29.50;1.00
48912;DHT22;34722;52.108;5.044;2022-08-21T09:34:09;29.10;1.00
48912;DHT22;34722;52.108;5.044;2022-08-21T09:36:48;27.50;96.90
48912;DHT22;34722;52.108;5.044;2022-08-21T09:39:24;28.50;99.90
48912;DHT22;34722;52.108;5.044;2022-08-21T09:42:02;29.40;1.00
48912;DHT22;34722;52.108;5.044;2022-08-21T09:44:35;29.10;1.00
48912;DHT22;34722;52.108;5.044;2022-08-21T09:47:06;27.50;44.00
48912;DHT22;34722;52.108;5.044;2022-08-21T09:49:42;28.30;81.10
48912;DHT22;34722;52.108;5.044;2022-08-21T09:52:22;29.80;1.00
48912;DHT22;34722;52.108;5.044;2022-08-21T09:54:52;31.50;1.00
48912;DHT22;34722;52.108;5.044;2022-08-21T09:57:25;31.60;1.00
48912;DHT22;34722;52.108;5.044;2022-08-21T10:00:29;32.50;1.00
48912;DHT22;34722;52.108;5.044;2022-08-21T10:03:18;32.20;1.00
48912;DHT22;34722;52.108;5.044;2022-08-21T10:06:05;33.00;1.00
48912;DHT22;34722;52.108;5.044;2022-08-21T10:08:35;33.60;1.00
48912;DHT22;34722;52.108;5.044;2022-08-21T10:11:07;33.70;1.00
48912;DHT22;34722;52.108;5.044;2022-08-21T10:13:55;32.30;1.00
48912;DHT22;34722;52.108;5.044;2022-08-21T10:25:18;32.60;1.00
48912;DHT22;34722;52.108;5.044;2022-08-21T10:28:18;31.80;1.00
48912;DHT22;34722;52.108;5.044;2022-08-21T10:30:58;32.00;1.00
48912;DHT22;34722;52.108;5.044;2022-08-21T10:36:09;32.70;1.00
48912;DHT22;34722;52.108;5.044;2022-08-21T10:42:00;30.70;1.00
48912;DHT22;34722;52.108;5.044;2022-08-21T10:44:35;29.10;1.00
48912;DHT22;34722;52.108;5.044;2022-08-21T10:47:13;27.60;1.00
48912;DHT22;34722;52.108;5.044;2022-08-21T10:49:50;26.50;23.90
48912;DHT22;34722;52.108;5.044;2022-08-21T10:52:36;25.60;99.90
48912;DHT22;34722;52.108;5.044;2022-08-21T10:55:16;25.40;1.00
48912;DHT22;34722;52.108;5.044;2022-08-21T10:58:03;25.10;1.00
48912;DHT22;34722;52.108;5.044;2022-08-21T11:00:51;25.90;1.00
48912;DHT22;34722;52.108;5.044;2022-08-21T11:03:42;28.40;1.00
48912;DHT22;34722;52.108;5.044;2022-08-21T11:06:19;29.70;1.00
48912;DHT22;34722;52.108;5.044;2022-08-21T11:08:51;30.90;1.00
48912;DHT22;34722;52.108;5.044;2022-08-21T11:13:44;31.90;1.00
48912;DHT22;34722;52.108;5.044;2022-08-21T11:19:07;29.30;1.00
48912;DHT22;34722;52.108;5.044;2022-08-21T11:22:33;29.60;1.00
48912;DHT22;34722;52.108;5.044;2022-08-21T11:25:06;31.20;1.00
48912;DHT22;34722;52.108;5.044;2022-08-21T11:36:56;32.90;1.00
48912;DHT22;34722;52.108;5.044;2022-08-21T11:40:19;32.90;1.00
48912;DHT22;34722;52.108;5.044;2022-08-21T11:43:12;32.30;1.00
48912;DHT22;34722;52.108;5.044;2022-08-21T11:45:53;32.40;1.00
48912;DHT22;34722;52.108;5.044;2022-08-21T11:51:54;33.00;1.00
48912;DHT22;34722;52.108;5.044;2022-08-21T11:54:37;35.20;1.00
48912;DHT22;34722;52.108;5.044;2022-08-21T12:00:16;31.80;1.00
48912;DHT22;34722;52.108;5.044;2022-08-21T12:02:48;29.60;1.00
48912;DHT22;34722;52.108;5.044;2022-08-21T12:05:42;28.60;1.00
48912;DHT22;34722;52.108;5.044;2022-08-21T12:10:59;28.60;1.00
48912;DHT22;34722;52.108;5.044;2022-08-21T12:13:27;28.00;1.00
48912;DHT22;34722;52.108;5.044;2022-08-21T12:18:33;26.80;1.00
48912;DHT22;34722;52.108;5.044;2022-08-21T12:21:23;26.90;1.00
48912;DHT22;34722;52.108;5.044;2022-08-21T12:26:46;26.50;1.00
48912;DHT22;34722;52.108;5.044;2022-08-21T12:29:23;26.30;1.00
48912;DHT22;34722;52.108;5.044;2022-08-21T12:34:45;26.80;1.00
48912;DHT22;34722;52.108;5.044;2022-08-21T12:37:39;27.90;1.00
48912;DHT22;34722;52.108;5.044;2022-08-21T12:40:31;28.40;1.00
48912;DHT22;34722;52.108;5.044;2022-08-21T12:42:59;28.90;1.00
48912;DHT22;34722;52.108;5.044;2022-08-21T12:45:33;29.20;1.00
48912;DHT22;34722;52.108;5.044;2022-08-21T12:48:00;28.60;1.00
48912;DHT22;34722;52.108;5.044;2022-08-21T12:50:48;28.40;1.00
48912;DHT22;34722;52.108;5.044;2022-08-21T12:56:04;27.50;1.00
48912;DHT22;34722;52.108;5.044;2022-08-21T12:58:34;27.10;1.00
48912;DHT22;34722;52.108;5.044;2022-08-21T13:01:04;27.30;1.00
48912;DHT22;34722;52.108;5.044;2022-08-21T13:03:33;27.20;1.00
48912;DHT22;34722;52.108;5.044;2022-08-21T13:06:00;27.20;1.00
48912;DHT22;34722;52.108;5.044;2022-08-21T13:08:27;27.30;1.00
48912;DHT22;34722;52.108;5.044;2022-08-21T13:11:02;27.20;1.00
48912;DHT22;34722;52.108;5.044;2022-08-21T13:13:31;27.20;1.00
48912;DHT22;34722;52.108;5.044;2022-08-21T13:16:04;27.10;1.00
48912;DHT22;34722;52.108;5.044;2022-08-21T13:18:31;27.10;1.00
48912;DHT22;34722;52.108;5.044;2022-08-21T13:21:12;27.40;1.00
48912;DHT22;34722;52.108;5.044;2022-08-21T13:23:38;27.50;1.00
48912;DHT22;34722;52.108;5.044;2022-08-21T13:26:15;27.80;1.00
48912;DHT22;34722;52.108;5.044;2022-08-21T13:28:41;27.80;1.00
48912;DHT22;34722;52.108;5.044;2022-08-21T13:31:09;28.00;1.00
48912;DHT22;34722;52.108;5.044;2022-08-21T13:33:37;28.50;1.00
48912;DHT22;34722;52.108;5.044;2022-08-21T13:36:43;28.80;1.00
48912;DHT22;34722;52.108;5.044;2022-08-21T13:39:07;28.60;1.00
48912;DHT22;34722;52.108;5.044;2022-08-21T13:41:35;28.20;1.00
48912;DHT22;34722;52.108;5.044;2022-08-21T13:46:33;27.90;1.00
48912;DHT22;34722;52.108;5.044;2022-08-21T13:49:02;27.90;1.00
48912;DHT22;34722;52.108;5.044;2022-08-21T13:51:29;28.00;1.00
48912;DHT22;34722;52.108;5.044;2022-08-21T13:53:56;28.10;1.00
48912;DHT22;34722;52.108;5.044;2022-08-21T13:56:31;28.10;1.00
48912;DHT22;34722;52.108;5.044;2022-08-21T13:58:59;28.40;1.00
48912;DHT22;34722;52.108;5.044;2022-08-21T14:01:29;28.40;1.00
48912;DHT22;34722;52.108;5.044;2022-08-21T14:04:06;28.30;1.00
48912;DHT22;34722;52.108;5.044;2022-08-21T14:06:35;28.10;1.00
48912;DHT22;34722;52.108;5.044;2022-08-21T14:09:11;27.70;1.00
48912;DHT22;34722;52.108;5.044;2022-08-21T14:11:37;27.90;1.00
48912;DHT22;34722;52.108;5.044;2022-08-21T14:14:18;27.90;1.00
48912;DHT22;34722;52.108;5.044;2022-08-21T14:16:54;27.60;1.00
48912;DHT22;34722;52.108;5.044;2022-08-21T14:19:23;27.50;1.00
48912;DHT22;34722;52.108;5.044;2022-08-21T14:21:50;27.50;1.00
48912;DHT22;34722;52.108;5.044;2022-08-21T14:27:05;27.10;1.00
48912;DHT22;34722;52.108;5.044;2022-08-21T14:29:39;26.90;1.00
48912;DHT22;34722;52.108;5.044;2022-08-21T14:32:21;26.90;1.00
48912;DHT22;34722;52.108;5.044;2022-08-21T14:34:48;26.70;1.00
48912;DHT22;34722;52.108;5.044;2022-08-21T14:37:13;26.30;1.00
48912;DHT22;34722;52.108;5.044;2022-08-21T14:42:18;26.20;1.00
48912;DHT22;34722;52.108;5.044;2022-08-21T14:44:47;26.20;1.00
48912;DHT22;34722;52.108;5.044;2022-08-21T14:47:13;26.20;1.00
48912;DHT22;34722;52.108;5.044;2022-08-21T14:49:39;26.10;1.00
48912;DHT22;34722;52.108;5.044;2022-08-21T14:52:05;26.20;1.00
48912;DHT22;34722;52.108;5.044;2022-08-21T14:54:34;26.00;1.00
48912;DHT22;34722;52.108;5.044;2022-08-21T14:57:08;26.00;1.00
48912;DHT22;34722;52.108;5.044;2022-08-21T14:59:35;25.90;1.00
48912;DHT22;34722;52.108;5.044;2022-08-21T15:02:02;25.70;1.00
48912;DHT22;34722;52.108;5.044;2022-08-21T15:04:29;25.60;1.00
48912;DHT22;34722;52.108;5.044;2022-08-21T15:06:56;25.40;1.00
48912;DHT22;34722;52.108;5.044;2022-08-21T15:09:22;25.30;1.00
48912;DHT22;34722;52.108;5.044;2022-08-21T15:11:49;25.10;1.00
48912;DHT22;34722;52.108;5.044;2022-08-21T15:14:24;24.70;1.00
48912;DHT22;34722;52.108;5.044;2022-08-21T15:16:51;24.60;1.00
48912;DHT22;34722;52.108;5.044;2022-08-21T15:19:18;24.70;1.00
48912;DHT22;34722;52.108;5.044;2022-08-21T15:21:44;24.80;1.00
48912;DHT22;34722;52.108;5.044;2022-08-21T15:24:10;24.80;1.00
48912;DHT22;34722;52.108;5.044;2022-08-21T15:26:36;24.70;1.00
48912;DHT22;34722;52.108;5.044;2022-08-21T15:29:02;24.50;1.00
48912;DHT22;34722;52.108;5.044;2022-08-21T15:31:30;24.30;1.00
48912;DHT22;34722;52.108;5.044;2022-08-21T15:33:55;24.30;1.00
48912;DHT22;34722;52.108;5.044;2022-08-21T15:36:23;24.40;1.00
48912;DHT22;34722;52.108;5.044;2022-08-21T15:38:49;24.60;1.00
48912;DHT22;34722;52.108;5.044;2022-08-21T15:41:15;24.80;1.00
48912;DHT22;34722;52.108;5.044;2022-08-21T15:43:47;24.90;1.00
48912;DHT22;34722;52.108;5.044;2022-08-21T15:46:17;25.00;1.00
48912;DHT22;34722;52.108;5.044;2022-08-21T15:48:47;25.10;1.00
48912;DHT22;34722;52.108;5.044;2022-08-21T15:51:15;25.10;1.00
48912;DHT22;34722;52.108;5.044;2022-08-21T15:53:41;24.90;1.00
48912;DHT22;34722;52.108;5.044;2022-08-21T15:56:24;24.90;1.00
48912;DHT22;34722;52.108;5.044;2022-08-21T15:58:52;24.80;1.00
48912;DHT22;34722;52.108;5.044;2022-08-21T16:01:21;24.70;1.00
48912;DHT22;34722;52.108;5.044;2022-08-21T16:03:49;24.70;1.00
48912;DHT22;34722;52.108;5.044;2022-08-21T16:06:17;24.60;1.00
48912;DHT22;34722;52.108;5.044;2022-08-21T16:08:43;24.50;1.00
48912;DHT22;34722;52.108;5.044;2022-08-21T16:11:13;24.60;1.00
48912;DHT22;34722;52.108;5.044;2022-08-21T16:13:42;24.80;1.00
48912;DHT22;34722;52.108;5.044;2022-08-21T16:16:11;24.80;1.00
48912;DHT22;34722;52.108;5.044;2022-08-21T16:18:39;24.60;1.00
48912;DHT22;34722;52.108;5.044;2022-08-21T16:21:07;24.50;1.00
48912;DHT22;34722;52.108;5.044;2022-08-21T16:23:34;24.60;1.00
48912;DHT22;34722;52.108;5.044;2022-08-21T16:26:05;24.70;1.00
48912;DHT22;34722;52.108;5.044;2022-08-21T16:28:34;24.70;1.00
48912;DHT22;34722;52.108;5.044;2022-08-21T16:31:01;24.70;1.00
48912;DHT22;34722;52.108;5.044;2022-08-21T16:33:35;24.80;1.00
48912;DHT22;34722;52.108;5.044;2022-08-21T16:36:02;24.70;1.00
48912;DHT22;34722;52.108;5.044;2022-08-21T16:38:28;24.80;1.00
48912;DHT22;34722;52.108;5.044;2022-08-21T16:40:54;24.70;1.00
48912;DHT22;34722;52.108;5.044;2022-08-21T16:43:29;24.70;1.00
48912;DHT22;34722;52.108;5.044;2022-08-21T16:45:57;24.50;1.00
48912;DHT22;34722;52.108;5.044;2022-08-21T16:48:23;24.50;1.00
48912;DHT22;34722;52.108;5.044;2022-08-21T16:50:49;24.40;1.00
48912;DHT22;34722;52.108;5.044;2022-08-21T16:53:15;24.20;1.00
48912;DHT22;34722;52.108;5.044;2022-08-21T16:55:42;24.10;1.00
48912;DHT22;34722;52.108;5.044;2022-08-21T16:58:20;24.00;1.00
48912;DHT22;34722;52.108;5.044;2022-08-21T17:00:54;24.00;1.00
48912;DHT22;34722;52.108;5.044;2022-08-21T17:03:32;23.80;1.00
48912;DHT22;34722;52.108;5.044;2022-08-21T17:05:59;23.50;1.00
48912;DHT22;34722;52.108;5.044;2022-08-21T17:08:26;23.30;1.00
48912;DHT22;34722;52.108;5.044;2022-08-21T17:10:52;23.30;1.00